sensor_id;sensor_type;location;lat;lon;timestamp;P1;durP1;ratioP1;P2;durP2;ratioP2
66927;SDS011;59882;45.624;11.698;2023-03-21T00:00:36;59.08;;;42.88;;
66927;SDS011;59882;45.624;11.698;2023-03-21T00:03:02;63.20;;;43.35;;
66927;SDS011;59882;45.624;11.698;2023-03-21T00:05:28;58.05;;;43.83;;
66927;SDS011;59882;45.624;11.698;2023-03-21T00:07:54;58.33;;;44.07;;
66927;SDS011;59882;45.624;11.698;2023-03-21T00:10:20;56.67;;;42.95;;
66927;SDS011;59882;45.624;11.698;2023-03-21T00:12:46;56.57;;;42.23;;
66927;SDS011;59882;45.624;11.698;2023-03-21T00:15:14;57.92;;;41.70;;
66927;SDS011;59882;45.624;11.698;2023-03-21T00:17:42;58.90;;;41.67;;
66927;SDS011;59882;45.624;11.698;2023-03-21T00:20:09;57.10;;;41.72;;
66927;SDS011;59882;45.624;11.698;2023-03-21T00:22:39;56.77;;;40.30;;
66927;SDS011;59882;45.624;11.698;2023-03-21T00:25:05;53.85;;;39.95;;
66927;SDS011;59882;45.624;11.698;2023-03-21T00:27:32;52.33;;;39.60;;
66927;SDS011;59882;45.624;11.698;2023-03-21T00:29:58;56.53;;;42.30;;
66927;SDS011;59882;45.624;11.698;2023-03-21T00:32:24;58.25;;;41.22;;
66927;SDS011;59882;45.624;11.698;2023-03-21T00:34:50;52.60;;;39.40;;
66927;SDS011;59882;45.624;11.698;2023-03-21T00:37:16;59.83;;;44.17;;
66927;SDS011;59882;45.624;11.698;2023-03-21T00:39:43;57.75;;;43.35;;
66927;SDS011;59882;45.624;11.698;2023-03-21T00:42:13;50.87;;;36.83;;
66927;SDS011;59882;45.624;11.698;2023-03-21T00:44:39;52.22;;;39.88;;
66927;SDS011;59882;45.624;11.698;2023-03-21T00:47:05;54.45;;;41.05;;
66927;SDS011;59882;45.624;11.698;2023-03-21T00:49:31;51.72;;;38.85;;
66927;SDS011;59882;45.624;11.698;2023-03-21T00:52:03;56.37;;;41.00;;
66927;SDS011;59882;45.624;11.698;2023-03-21T00:54:34;58.13;;;40.70;;
66927;SDS011;59882;45.624;11.698;2023-03-21T00:57:01;61.45;;;44.10;;
66927;SDS011;59882;45.624;11.698;2023-03-21T00:59:29;55.70;;;42.53;;
66927;SDS011;59882;45.624;11.698;2023-03-21T01:01:55;53.20;;;38.77;;
66927;SDS011;59882;45.624;11.698;2023-03-21T01:04:24;59.88;;;43.70;;
66927;SDS011;59882;45.624;11.698;2023-03-21T01:06:50;52.65;;;39.95;;
66927;SDS011;59882;45.624;11.698;2023-03-21T01:09:17;50.28;;;38.28;;
66927;SDS011;59882;45.624;11.698;2023-03-21T01:11:45;53.47;;;39.25;;
66927;SDS011;59882;45.624;11.698;2023-03-21T01:14:12;56.87;;;39.23;;
66927;SDS011;59882;45.624;11.698;2023-03-21T01:16:40;49.28;;;36.58;;
66927;SDS011;59882;45.624;11.698;2023-03-21T01:19:06;48.25;;;35.35;;
66927;SDS011;59882;45.624;11.698;2023-03-21T01:21:35;46.40;;;34.92;;
66927;SDS011;59882;45.624;11.698;2023-03-21T01:24:00;49.53;;;37.80;;
66927;SDS011;59882;45.624;11.698;2023-03-21T01:26:26;52.88;;;39.60;;
66927;SDS011;59882;45.624;11.698;2023-03-21T01:28:52;50.60;;;37.38;;
66927;SDS011;59882;45.624;11.698;2023-03-21T01:31:18;51.73;;;36.67;;
66927;SDS011;59882;45.624;11.698;2023-03-21T01:33:44;51.15;;;39.03;;
66927;SDS011;59882;45.624;11.698;2023-03-21T01:36:13;52.03;;;38.58;;
66927;SDS011;59882;45.624;11.698;2023-03-21T01:38:43;56.05;;;38.72;;
66927;SDS011;59882;45.624;11.698;2023-03-21T01:43:55;49.28;;;36.90;;
66927;SDS011;59882;45.624;11.698;2023-03-21T01:51:37;44.13;;;34.70;;
66927;SDS011;59882;45.624;11.698;2023-03-21T01:54:06;43.00;;;33.00;;
66927;SDS011;59882;45.624;11.698;2023-03-21T01:56:38;48.60;;;35.22;;
66927;SDS011;59882;45.624;11.698;2023-03-21T01:59:10;50.83;;;36.95;;
66927;SDS011;59882;45.624;11.698;2023-03-21T02:01:41;44.45;;;34.35;;
66927;SDS011;59882;45.624;11.698;2023-03-21T02:04:08;47.45;;;34.25;;
66927;SDS011;59882;45.624;11.698;2023-03-21T02:06:40;46.63;;;33.90;;
66927;SDS011;59882;45.624;11.698;2023-03-21T02:09:12;49.65;;;36.25;;
66927;SDS011;59882;45.624;11.698;2023-03-21T02:11:42;44.03;;;34.70;;
66927;SDS011;59882;45.624;11.698;2023-03-21T02:14:15;46.10;;;35.60;;
66927;SDS011;59882;45.624;11.698;2023-03-21T02:22:09;46.95;;;34.47;;
66927;SDS011;59882;45.624;11.698;2023-03-21T02:27:55;44.60;;;31.83;;
66927;SDS011;59882;45.624;11.698;2023-03-21T02:36:00;42.83;;;34.45;;
66927;SDS011;59882;45.624;11.698;2023-03-21T02:41:24;43.50;;;32.58;;
66927;SDS011;59882;45.624;11.698;2023-03-21T02:51:49;45.10;;;33.53;;
66927;SDS011;59882;45.624;11.698;2023-03-21T02:54:17;41.93;;;33.57;;
66927;SDS011;59882;45.624;11.698;2023-03-21T02:56:45;44.13;;;33.33;;
66927;SDS011;59882;45.624;11.698;2023-03-21T02:59:13;46.90;;;32.78;;
66927;SDS011;59882;45.624;11.698;2023-03-21T03:01:41;42.90;;;32.47;;
66927;SDS011;59882;45.624;11.698;2023-03-21T03:04:17;46.75;;;34.03;;
66927;SDS011;59882;45.624;11.698;2023-03-21T03:09:38;48.42;;;33.63;;
66927;SDS011;59882;45.624;11.698;2023-03-21T03:22:00;42.53;;;32.10;;
66927;SDS011;59882;45.624;11.698;2023-03-21T03:24:15;45.97;;;33.35;;
66927;SDS011;59882;45.624;11.698;2023-03-21T03:26:49;41.75;;;30.65;;
66927;SDS011;59882;45.624;11.698;2023-03-21T03:29:18;41.65;;;31.70;;
66927;SDS011;59882;45.624;11.698;2023-03-21T03:32:33;40.80;;;32.33;;
66927;SDS011;59882;45.624;11.698;2023-03-21T03:34:54;44.67;;;31.03;;
66927;SDS011;59882;45.624;11.698;2023-03-21T03:37:22;42.10;;;32.05;;
66927;SDS011;59882;45.624;11.698;2023-03-21T03:40:11;45.10;;;32.25;;
66927;SDS011;59882;45.624;11.698;2023-03-21T03:45:13;47.42;;;32.80;;
66927;SDS011;59882;45.624;11.698;2023-03-21T03:50:26;43.60;;;33.17;;
66927;SDS011;59882;45.624;11.698;2023-03-21T03:53:20;44.33;;;33.60;;
66927;SDS011;59882;45.624;11.698;2023-03-21T03:55:56;48.08;;;34.60;;
66927;SDS011;59882;45.624;11.698;2023-03-21T03:58:24;45.50;;;33.17;;
66927;SDS011;59882;45.624;11.698;2023-03-21T04:00:52;46.43;;;34.13;;
66927;SDS011;59882;45.624;11.698;2023-03-21T04:03:19;51.55;;;32.75;;
66927;SDS011;59882;45.624;11.698;2023-03-21T04:05:45;45.30;;;33.28;;
66927;SDS011;59882;45.624;11.698;2023-03-21T04:08:12;40.63;;;29.60;;
66927;SDS011;59882;45.624;11.698;2023-03-21T04:10:39;41.50;;;30.63;;
66927;SDS011;59882;45.624;11.698;2023-03-21T04:13:06;43.95;;;31.25;;
66927;SDS011;59882;45.624;11.698;2023-03-21T04:15:32;41.47;;;30.70;;
66927;SDS011;59882;45.624;11.698;2023-03-21T04:17:57;42.93;;;31.30;;
66927;SDS011;59882;45.624;11.698;2023-03-21T04:20:23;42.00;;;30.80;;
66927;SDS011;59882;45.624;11.698;2023-03-21T04:22:49;39.90;;;31.27;;
66927;SDS011;59882;45.624;11.698;2023-03-21T04:25:16;45.80;;;31.85;;
66927;SDS011;59882;45.624;11.698;2023-03-21T04:27:42;41.70;;;30.98;;
66927;SDS011;59882;45.624;11.698;2023-03-21T04:30:09;42.53;;;31.17;;
66927;SDS011;59882;45.624;11.698;2023-03-21T04:32:36;42.37;;;31.53;;
66927;SDS011;59882;45.624;11.698;2023-03-21T04:35:04;39.80;;;29.08;;
66927;SDS011;59882;45.624;11.698;2023-03-21T04:37:31;44.13;;;29.15;;
66927;SDS011;59882;45.624;11.698;2023-03-21T04:39:57;41.03;;;29.85;;
66927;SDS011;59882;45.624;11.698;2023-03-21T04:42:23;41.90;;;30.40;;
66927;SDS011;59882;45.624;11.698;2023-03-21T04:44:49;40.25;;;29.77;;
66927;SDS011;59882;45.624;11.698;2023-03-21T04:47:15;42.10;;;29.77;;
66927;SDS011;59882;45.624;11.698;2023-03-21T04:49:44;39.70;;;29.63;;
66927;SDS011;59882;45.624;11.698;2023-03-21T04:52:12;46.67;;;30.80;;
66927;SDS011;59882;45.624;11.698;2023-03-21T04:54:38;44.08;;;30.02;;
66927;SDS011;59882;45.624;11.698;2023-03-21T04:57:03;39.10;;;29.53;;
66927;SDS011;59882;45.624;11.698;2023-03-21T04:59:29;45.90;;;30.58;;
66927;SDS011;59882;45.624;11.698;2023-03-21T05:01:55;42.33;;;29.83;;
66927;SDS011;59882;45.624;11.698;2023-03-21T05:04:22;43.57;;;30.43;;
66927;SDS011;59882;45.624;11.698;2023-03-21T05:06:50;42.78;;;29.85;;
66927;SDS011;59882;45.624;11.698;2023-03-21T05:09:16;41.15;;;30.13;;
66927;SDS011;59882;45.624;11.698;2023-03-21T05:11:42;38.78;;;30.02;;
66927;SDS011;59882;45.624;11.698;2023-03-21T05:14:09;37.33;;;27.90;;
66927;SDS011;59882;45.624;11.698;2023-03-21T05:16:38;39.00;;;28.42;;
66927;SDS011;59882;45.624;11.698;2023-03-21T05:19:09;41.35;;;30.33;;
66927;SDS011;59882;45.624;11.698;2023-03-21T05:21:38;41.87;;;28.83;;
66927;SDS011;59882;45.624;11.698;2023-03-21T05:24:12;47.72;;;32.05;;
66927;SDS011;59882;45.624;11.698;2023-03-21T05:26:44;48.45;;;33.17;;
66927;SDS011;59882;45.624;11.698;2023-03-21T05:29:20;47.30;;;33.20;;
66927;SDS011;59882;45.624;11.698;2023-03-21T05:31:45;47.23;;;33.33;;
66927;SDS011;59882;45.624;11.698;2023-03-21T05:34:11;51.25;;;33.78;;
66927;SDS011;59882;45.624;11.698;2023-03-21T05:36:38;47.58;;;32.15;;
66927;SDS011;59882;45.624;11.698;2023-03-21T05:39:04;47.43;;;32.03;;
66927;SDS011;59882;45.624;11.698;2023-03-21T05:41:30;44.40;;;33.05;;
66927;SDS011;59882;45.624;11.698;2023-03-21T05:43:56;45.63;;;33.47;;
66927;SDS011;59882;45.624;11.698;2023-03-21T05:46:22;46.63;;;33.53;;
66927;SDS011;59882;45.624;11.698;2023-03-21T05:48:47;48.35;;;34.53;;
66927;SDS011;59882;45.624;11.698;2023-03-21T05:51:13;46.33;;;32.47;;
66927;SDS011;59882;45.624;11.698;2023-03-21T05:53:39;53.05;;;36.00;;
66927;SDS011;59882;45.624;11.698;2023-03-21T05:56:04;53.43;;;35.13;;
66927;SDS011;59882;45.624;11.698;2023-03-21T05:58:30;51.25;;;35.75;;
66927;SDS011;59882;45.624;11.698;2023-03-21T06:00:56;52.50;;;35.40;;
66927;SDS011;59882;45.624;11.698;2023-03-21T06:03:22;50.40;;;34.55;;
66927;SDS011;59882;45.624;11.698;2023-03-21T06:05:47;46.40;;;33.77;;
66927;SDS011;59882;45.624;11.698;2023-03-21T06:08:13;48.00;;;33.58;;
66927;SDS011;59882;45.624;11.698;2023-03-21T06:10:39;48.58;;;34.60;;
66927;SDS011;59882;45.624;11.698;2023-03-21T06:13:05;45.20;;;32.53;;
66927;SDS011;59882;45.624;11.698;2023-03-21T06:15:30;44.35;;;32.78;;
66927;SDS011;59882;45.624;11.698;2023-03-21T06:17:56;46.73;;;32.20;;
66927;SDS011;59882;45.624;11.698;2023-03-21T06:20:21;43.80;;;32.30;;
66927;SDS011;59882;45.624;11.698;2023-03-21T06:22:47;45.53;;;32.05;;
66927;SDS011;59882;45.624;11.698;2023-03-21T06:25:13;44.53;;;32.70;;
66927;SDS011;59882;45.624;11.698;2023-03-21T06:27:38;44.22;;;32.88;;
66927;SDS011;59882;45.624;11.698;2023-03-21T06:30:04;52.67;;;33.33;;
66927;SDS011;59882;45.624;11.698;2023-03-21T06:32:30;45.20;;;31.45;;
66927;SDS011;59882;45.624;11.698;2023-03-21T06:34:57;44.40;;;32.80;;
66927;SDS011;59882;45.624;11.698;2023-03-21T06:37:22;48.83;;;34.97;;
66927;SDS011;59882;45.624;11.698;2023-03-21T06:39:49;47.90;;;35.05;;
66927;SDS011;59882;45.624;11.698;2023-03-21T06:42:15;53.43;;;36.70;;
66927;SDS011;59882;45.624;11.698;2023-03-21T06:44:41;46.88;;;35.22;;
66927;SDS011;59882;45.624;11.698;2023-03-21T06:47:07;50.35;;;38.10;;
66927;SDS011;59882;45.624;11.698;2023-03-21T06:49:33;49.60;;;35.53;;
66927;SDS011;59882;45.624;11.698;2023-03-21T06:51:58;50.00;;;36.60;;
66927;SDS011;59882;45.624;11.698;2023-03-21T06:54:24;49.35;;;36.50;;
66927;SDS011;59882;45.624;11.698;2023-03-21T06:56:50;55.43;;;38.70;;
66927;SDS011;59882;45.624;11.698;2023-03-21T06:59:16;55.75;;;38.35;;
66927;SDS011;59882;45.624;11.698;2023-03-21T07:01:41;55.53;;;36.70;;
66927;SDS011;59882;45.624;11.698;2023-03-21T07:04:07;56.85;;;37.70;;
66927;SDS011;59882;45.624;11.698;2023-03-21T07:06:34;54.25;;;37.50;;
66927;SDS011;59882;45.624;11.698;2023-03-21T07:09:01;58.95;;;38.40;;
66927;SDS011;59882;45.624;11.698;2023-03-21T07:11:27;51.07;;;36.77;;
66927;SDS011;59882;45.624;11.698;2023-03-21T07:13:52;54.58;;;38.67;;
66927;SDS011;59882;45.624;11.698;2023-03-21T07:16:18;52.87;;;37.13;;
66927;SDS011;59882;45.624;11.698;2023-03-21T07:18:45;49.10;;;37.10;;
66927;SDS011;59882;45.624;11.698;2023-03-21T07:21:11;60.35;;;36.97;;
66927;SDS011;59882;45.624;11.698;2023-03-21T07:23:37;61.55;;;37.45;;
66927;SDS011;59882;45.624;11.698;2023-03-21T07:26:04;51.50;;;36.33;;
66927;SDS011;59882;45.624;11.698;2023-03-21T07:28:30;56.72;;;38.80;;
66927;SDS011;59882;45.624;11.698;2023-03-21T07:30:58;54.97;;;38.55;;
66927;SDS011;59882;45.624;11.698;2023-03-21T07:33:26;59.38;;;37.67;;
66927;SDS011;59882;45.624;11.698;2023-03-21T07:35:53;53.80;;;37.15;;
66927;SDS011;59882;45.624;11.698;2023-03-21T07:38:19;53.90;;;37.47;;
66927;SDS011;59882;45.624;11.698;2023-03-21T07:40:46;52.58;;;39.33;;
66927;SDS011;59882;45.624;11.698;2023-03-21T07:43:13;53.28;;;37.20;;
66927;SDS011;59882;45.624;11.698;2023-03-21T07:45:40;52.67;;;37.65;;
66927;SDS011;59882;45.624;11.698;2023-03-21T07:48:06;51.38;;;36.75;;
66927;SDS011;59882;45.624;11.698;2023-03-21T07:50:32;51.00;;;37.00;;
66927;SDS011;59882;45.624;11.698;2023-03-21T07:52:58;46.20;;;36.10;;
66927;SDS011;59882;45.624;11.698;2023-03-21T07:55:23;47.07;;;35.53;;
66927;SDS011;59882;45.624;11.698;2023-03-21T07:57:49;49.47;;;35.80;;
66927;SDS011;59882;45.624;11.698;2023-03-21T08:00:18;50.77;;;37.07;;
66927;SDS011;59882;45.624;11.698;2023-03-21T08:02:51;47.85;;;35.83;;
66927;SDS011;59882;45.624;11.698;2023-03-21T08:05:22;49.00;;;36.60;;
66927;SDS011;59882;45.624;11.698;2023-03-21T08:07:57;48.35;;;33.95;;
66927;SDS011;59882;45.624;11.698;2023-03-21T08:10:23;44.33;;;32.97;;
66927;SDS011;59882;45.624;11.698;2023-03-21T08:12:49;43.45;;;33.33;;
66927;SDS011;59882;45.624;11.698;2023-03-21T08:15:14;42.85;;;32.35;;
66927;SDS011;59882;45.624;11.698;2023-03-21T08:17:40;47.83;;;35.73;;
66927;SDS011;59882;45.624;11.698;2023-03-21T08:20:09;47.83;;;35.55;;
66927;SDS011;59882;45.624;11.698;2023-03-21T08:22:37;51.95;;;36.78;;
66927;SDS011;59882;45.624;11.698;2023-03-21T08:25:03;47.43;;;36.20;;
66927;SDS011;59882;45.624;11.698;2023-03-21T08:27:30;51.80;;;38.38;;
66927;SDS011;59882;45.624;11.698;2023-03-21T08:29:57;52.75;;;38.15;;
66927;SDS011;59882;45.624;11.698;2023-03-21T08:32:24;54.45;;;39.40;;
66927;SDS011;59882;45.624;11.698;2023-03-21T08:34:53;52.67;;;40.70;;
66927;SDS011;59882;45.624;11.698;2023-03-21T08:37:21;60.03;;;43.53;;
66927;SDS011;59882;45.624;11.698;2023-03-21T08:39:47;60.88;;;41.45;;
66927;SDS011;59882;45.624;11.698;2023-03-21T08:42:13;50.43;;;38.17;;
66927;SDS011;59882;45.624;11.698;2023-03-21T08:44:38;58.65;;;40.92;;
66927;SDS011;59882;45.624;11.698;2023-03-21T08:47:05;54.80;;;39.33;;
66927;SDS011;59882;45.624;11.698;2023-03-21T08:49:33;57.87;;;41.30;;
66927;SDS011;59882;45.624;11.698;2023-03-21T08:51:59;70.55;;;49.30;;
66927;SDS011;59882;45.624;11.698;2023-03-21T08:54:25;62.17;;;46.67;;
66927;SDS011;59882;45.624;11.698;2023-03-21T08:56:50;60.00;;;41.00;;
66927;SDS011;59882;45.624;11.698;2023-03-21T08:59:16;53.87;;;39.07;;
66927;SDS011;59882;45.624;11.698;2023-03-21T09:01:42;44.87;;;34.77;;
66927;SDS011;59882;45.624;11.698;2023-03-21T09:04:07;45.47;;;33.77;;
66927;SDS011;59882;45.624;11.698;2023-03-21T09:06:37;41.97;;;32.10;;
66927;SDS011;59882;45.624;11.698;2023-03-21T09:09:09;41.97;;;31.67;;
66927;SDS011;59882;45.624;11.698;2023-03-21T09:11:36;40.10;;;30.23;;
66927;SDS011;59882;45.624;11.698;2023-03-21T09:14:02;38.40;;;30.17;;
66927;SDS011;59882;45.624;11.698;2023-03-21T09:16:28;43.07;;;35.00;;
66927;SDS011;59882;45.624;11.698;2023-03-21T09:18:54;43.70;;;32.97;;
66927;SDS011;59882;45.624;11.698;2023-03-21T09:21:21;45.80;;;32.10;;
66927;SDS011;59882;45.624;11.698;2023-03-21T09:23:48;42.83;;;33.45;;
66927;SDS011;59882;45.624;11.698;2023-03-21T09:26:16;39.70;;;31.90;;
66927;SDS011;59882;45.624;11.698;2023-03-21T09:28:43;37.30;;;30.60;;
66927;SDS011;59882;45.624;11.698;2023-03-21T09:31:10;39.25;;;30.67;;
66927;SDS011;59882;45.624;11.698;2023-03-21T09:33:38;38.08;;;30.55;;
66927;SDS011;59882;45.624;11.698;2023-03-21T09:36:05;38.17;;;28.45;;
66927;SDS011;59882;45.624;11.698;2023-03-21T09:38:35;40.70;;;27.50;;
66927;SDS011;59882;45.624;11.698;2023-03-21T09:49:25;38.72;;;27.60;;
66927;SDS011;59882;45.624;11.698;2023-03-21T09:51:57;39.70;;;28.63;;
66927;SDS011;59882;45.624;11.698;2023-03-21T09:54:29;33.45;;;24.73;;
66927;SDS011;59882;45.624;11.698;2023-03-21T09:57:00;34.85;;;25.00;;
66927;SDS011;59882;45.624;11.698;2023-03-21T09:59:32;31.25;;;25.55;;
66927;SDS011;59882;45.624;11.698;2023-03-21T10:02:02;36.47;;;27.17;;
66927;SDS011;59882;45.624;11.698;2023-03-21T10:04:41;31.53;;;25.50;;
66927;SDS011;59882;45.624;11.698;2023-03-21T10:07:10;32.67;;;25.17;;
66927;SDS011;59882;45.624;11.698;2023-03-21T10:09:44;28.77;;;23.75;;
66927;SDS011;59882;45.624;11.698;2023-03-21T10:12:15;30.10;;;25.65;;
66927;SDS011;59882;45.624;11.698;2023-03-21T10:14:49;31.45;;;25.63;;
66927;SDS011;59882;45.624;11.698;2023-03-21T10:17:34;33.83;;;26.37;;
66927;SDS011;59882;45.624;11.698;2023-03-21T10:20:26;34.60;;;28.38;;
66927;SDS011;59882;45.624;11.698;2023-03-21T10:22:55;34.35;;;27.52;;
66927;SDS011;59882;45.624;11.698;2023-03-21T10:28:04;36.47;;;29.88;;
66927;SDS011;59882;45.624;11.698;2023-03-21T10:33:13;37.50;;;30.73;;
66927;SDS011;59882;45.624;11.698;2023-03-21T10:35:42;40.10;;;30.52;;
66927;SDS011;59882;45.624;11.698;2023-03-21T10:38:13;34.95;;;25.73;;
66927;SDS011;59882;45.624;11.698;2023-03-21T10:40:42;33.33;;;24.02;;
66927;SDS011;59882;45.624;11.698;2023-03-21T10:43:18;34.30;;;23.67;;
66927;SDS011;59882;45.624;11.698;2023-03-21T10:45:45;35.20;;;25.70;;
66927;SDS011;59882;45.624;11.698;2023-03-21T10:48:12;40.47;;;28.92;;
66927;SDS011;59882;45.624;11.698;2023-03-21T10:50:38;45.00;;;32.67;;
66927;SDS011;59882;45.624;11.698;2023-03-21T10:53:05;39.53;;;28.70;;
66927;SDS011;59882;45.624;11.698;2023-03-21T10:55:44;38.67;;;29.38;;
66927;SDS011;59882;45.624;11.698;2023-03-21T10:58:20;40.55;;;29.92;;
66927;SDS011;59882;45.624;11.698;2023-03-21T11:01:01;33.92;;;27.98;;
66927;SDS011;59882;45.624;11.698;2023-03-21T11:03:30;33.53;;;24.60;;
66927;SDS011;59882;45.624;11.698;2023-03-21T11:06:14;35.13;;;29.13;;
66927;SDS011;59882;45.624;11.698;2023-03-21T11:08:52;36.17;;;27.48;;
66927;SDS011;59882;45.624;11.698;2023-03-21T11:11:32;35.38;;;26.90;;
66927;SDS011;59882;45.624;11.698;2023-03-21T11:14:04;33.30;;;26.95;;
66927;SDS011;59882;45.624;11.698;2023-03-21T11:16:38;35.97;;;28.50;;
66927;SDS011;59882;45.624;11.698;2023-03-21T11:19:16;36.33;;;29.70;;
66927;SDS011;59882;45.624;11.698;2023-03-21T11:21:44;31.52;;;25.67;;
66927;SDS011;59882;45.624;11.698;2023-03-21T11:24:15;30.15;;;24.20;;
66927;SDS011;59882;45.624;11.698;2023-03-21T11:26:46;30.30;;;23.55;;
66927;SDS011;59882;45.624;11.698;2023-03-21T11:32:00;29.73;;;23.93;;
66927;SDS011;59882;45.624;11.698;2023-03-21T11:34:38;29.58;;;24.50;;
66927;SDS011;59882;45.624;11.698;2023-03-21T11:37:23;33.60;;;27.23;;
66927;SDS011;59882;45.624;11.698;2023-03-21T11:40:07;32.13;;;24.85;;
66927;SDS011;59882;45.624;11.698;2023-03-21T11:42:44;31.33;;;27.00;;
66927;SDS011;59882;45.624;11.698;2023-03-21T11:47:51;34.15;;;28.25;;
66927;SDS011;59882;45.624;11.698;2023-03-21T11:50:31;34.75;;;27.02;;
66927;SDS011;59882;45.624;11.698;2023-03-21T11:56:03;32.08;;;21.70;;
66927;SDS011;59882;45.624;11.698;2023-03-21T12:04:34;25.85;;;20.98;;
66927;SDS011;59882;45.624;11.698;2023-03-21T12:18:44;24.50;;;20.35;;
66927;SDS011;59882;45.624;11.698;2023-03-21T12:22:11;26.02;;;21.80;;
66927;SDS011;59882;45.624;11.698;2023-03-21T12:27:48;27.23;;;23.03;;
66927;SDS011;59882;45.624;11.698;2023-03-21T12:41:39;26.02;;;22.92;;
66927;SDS011;59882;45.624;11.698;2023-03-21T12:44:10;27.60;;;23.90;;
66927;SDS011;59882;45.624;11.698;2023-03-21T12:46:44;25.20;;;22.50;;
66927;SDS011;59882;45.624;11.698;2023-03-21T12:52:17;28.50;;;25.42;;
66927;SDS011;59882;45.624;11.698;2023-03-21T12:57:24;26.65;;;24.05;;
66927;SDS011;59882;45.624;11.698;2023-03-21T13:00:09;30.17;;;27.13;;
66927;SDS011;59882;45.624;11.698;2023-03-21T13:02:44;28.10;;;25.20;;
66927;SDS011;59882;45.624;11.698;2023-03-21T13:05:33;25.98;;;23.38;;
66927;SDS011;59882;45.624;11.698;2023-03-21T13:08:28;28.70;;;25.77;;
66927;SDS011;59882;45.624;11.698;2023-03-21T13:11:01;26.30;;;23.75;;
66927;SDS011;59882;45.624;11.698;2023-03-21T13:13:36;25.15;;;22.58;;
66927;SDS011;59882;45.624;11.698;2023-03-21T13:21:49;23.42;;;21.17;;
66927;SDS011;59882;45.624;11.698;2023-03-21T13:24:25;22.52;;;20.23;;
66927;SDS011;59882;45.624;11.698;2023-03-21T13:29:40;26.92;;;23.95;;
66927;SDS011;59882;45.624;11.698;2023-03-21T13:32:14;25.67;;;23.20;;
66927;SDS011;59882;45.624;11.698;2023-03-21T13:34:52;23.35;;;21.17;;
66927;SDS011;59882;45.624;11.698;2023-03-21T13:37:24;27.40;;;24.65;;
66927;SDS011;59882;45.624;11.698;2023-03-21T13:40:04;21.02;;;19.00;;
66927;SDS011;59882;45.624;11.698;2023-03-21T13:42:41;20.38;;;18.40;;
66927;SDS011;59882;45.624;11.698;2023-03-21T13:45:11;21.38;;;19.25;;
66927;SDS011;59882;45.624;11.698;2023-03-21T13:47:54;24.60;;;22.10;;
66927;SDS011;59882;45.624;11.698;2023-03-21T13:50:23;21.48;;;19.38;;
66927;SDS011;59882;45.624;11.698;2023-03-21T13:55:44;22.63;;;20.30;;
66927;SDS011;59882;45.624;11.698;2023-03-21T13:58:23;18.50;;;16.70;;
66927;SDS011;59882;45.624;11.698;2023-03-21T14:01:04;19.40;;;17.55;;
66927;SDS011;59882;45.624;11.698;2023-03-21T14:03:46;17.30;;;15.57;;
66927;SDS011;59882;45.624;11.698;2023-03-21T14:06:11;19.03;;;17.07;;
66927;SDS011;59882;45.624;11.698;2023-03-21T14:08:39;19.70;;;17.23;;
66927;SDS011;59882;45.624;11.698;2023-03-21T14:11:11;20.33;;;18.42;;
66927;SDS011;59882;45.624;11.698;2023-03-21T14:13:41;16.70;;;14.45;;
66927;SDS011;59882;45.624;11.698;2023-03-21T14:16:14;17.85;;;16.05;;
66927;SDS011;59882;45.624;11.698;2023-03-21T14:18:52;14.53;;;13.03;;
66927;SDS011;59882;45.624;11.698;2023-03-21T14:21:22;14.02;;;12.55;;
66927;SDS011;59882;45.624;11.698;2023-03-21T14:26:26;16.40;;;13.90;;
66927;SDS011;59882;45.624;11.698;2023-03-21T14:28:55;15.85;;;14.15;;
66927;SDS011;59882;45.624;11.698;2023-03-21T14:31:22;16.83;;;12.77;;
66927;SDS011;59882;45.624;11.698;2023-03-21T14:33:51;12.80;;;11.07;;
66927;SDS011;59882;45.624;11.698;2023-03-21T14:36:26;14.25;;;12.63;;
66927;SDS011;59882;45.624;11.698;2023-03-21T14:39:04;15.07;;;13.57;;
66927;SDS011;59882;45.624;11.698;2023-03-21T14:41:32;14.37;;;12.97;;
66927;SDS011;59882;45.624;11.698;2023-03-21T14:44:14;16.23;;;14.63;;
66927;SDS011;59882;45.624;11.698;2023-03-21T14:46:52;17.20;;;15.32;;
66927;SDS011;59882;45.624;11.698;2023-03-21T14:49:26;15.93;;;14.30;;
66927;SDS011;59882;45.624;11.698;2023-03-21T14:51:54;19.10;;;17.00;;
66927;SDS011;59882;45.624;11.698;2023-03-21T14:54:22;18.47;;;16.50;;
66927;SDS011;59882;45.624;11.698;2023-03-21T14:56:50;17.63;;;15.20;;
66927;SDS011;59882;45.624;11.698;2023-03-21T14:59:20;19.15;;;17.15;;
66927;SDS011;59882;45.624;11.698;2023-03-21T15:01:48;19.63;;;17.30;;
66927;SDS011;59882;45.624;11.698;2023-03-21T15:04:16;20.70;;;18.63;;
66927;SDS011;59882;45.624;11.698;2023-03-21T15:06:49;19.13;;;17.23;;
66927;SDS011;59882;45.624;11.698;2023-03-21T15:09:20;23.67;;;19.48;;
66927;SDS011;59882;45.624;11.698;2023-03-21T15:11:51;19.95;;;17.95;;
66927;SDS011;59882;45.624;11.698;2023-03-21T15:14:19;21.13;;;18.83;;
66927;SDS011;59882;45.624;11.698;2023-03-21T15:16:49;22.95;;;20.63;;
66927;SDS011;59882;45.624;11.698;2023-03-21T15:19:17;22.23;;;18.97;;
66927;SDS011;59882;45.624;11.698;2023-03-21T15:21:48;20.40;;;18.27;;
66927;SDS011;59882;45.624;11.698;2023-03-21T15:26:56;22.60;;;18.58;;
66927;SDS011;59882;45.624;11.698;2023-03-21T15:29:27;20.98;;;17.00;;
66927;SDS011;59882;45.624;11.698;2023-03-21T15:31:53;23.53;;;20.40;;
66927;SDS011;59882;45.624;11.698;2023-03-21T15:34:20;22.77;;;19.35;;
66927;SDS011;59882;45.624;11.698;2023-03-21T15:36:55;20.75;;;18.40;;
66927;SDS011;59882;45.624;11.698;2023-03-21T15:39:30;22.92;;;20.52;;
66927;SDS011;59882;45.624;11.698;2023-03-21T15:42:21;22.57;;;20.23;;
66927;SDS011;59882;45.624;11.698;2023-03-21T15:44:51;21.40;;;19.13;;
66927;SDS011;59882;45.624;11.698;2023-03-21T15:50:33;27.75;;;23.77;;
66927;SDS011;59882;45.624;11.698;2023-03-21T15:53:02;28.30;;;25.10;;
66927;SDS011;59882;45.624;11.698;2023-03-21T15:55:39;29.27;;;25.40;;
66927;SDS011;59882;45.624;11.698;2023-03-21T15:58:22;27.80;;;24.83;;
66927;SDS011;59882;45.624;11.698;2023-03-21T16:00:54;27.95;;;24.42;;
66927;SDS011;59882;45.624;11.698;2023-03-21T16:08:27;31.50;;;24.80;;
66927;SDS011;59882;45.624;11.698;2023-03-21T16:11:06;29.02;;;24.20;;
66927;SDS011;59882;45.624;11.698;2023-03-21T16:13:43;31.27;;;25.77;;
66927;SDS011;59882;45.624;11.698;2023-03-21T16:16:19;30.90;;;24.07;;
66927;SDS011;59882;45.624;11.698;2023-03-21T16:18:49;31.60;;;25.25;;
66927;SDS011;59882;45.624;11.698;2023-03-21T16:21:17;31.85;;;24.73;;
66927;SDS011;59882;45.624;11.698;2023-03-21T16:23:45;29.27;;;25.52;;
66927;SDS011;59882;45.624;11.698;2023-03-21T16:26:18;35.53;;;28.77;;
66927;SDS011;59882;45.624;11.698;2023-03-21T16:28:47;29.33;;;25.37;;
66927;SDS011;59882;45.624;11.698;2023-03-21T16:31:15;34.15;;;27.48;;
66927;SDS011;59882;45.624;11.698;2023-03-21T16:33:42;30.45;;;25.38;;
66927;SDS011;59882;45.624;11.698;2023-03-21T16:36:11;32.85;;;25.55;;
66927;SDS011;59882;45.624;11.698;2023-03-21T16:38:39;30.33;;;25.67;;